createdAt,value
2022-09-23T00:00:18.003Z,98152.98
2022-09-23T00:01:48.038Z,98153.19
2022-09-23T00:02:56.204Z,98153.56
2022-09-23T00:04:05.629Z,98154.16
2022-09-23T00:05:13.778Z,98156.92
2022-09-23T00:06:24.213Z,98156.15
2022-09-23T00:07:34.586Z,98156.20
2022-09-23T00:08:43.614Z,98156.77
2022-09-23T00:09:52.975Z,98158.75
2022-09-23T00:11:13.522Z,98157.14
2022-09-23T00:12:22.428Z,98155.91
2022-09-23T00:13:31.354Z,98157.60
2022-09-23T00:14:42.130Z,98153.77
2022-09-23T00:15:51.039Z,98155.15
2022-09-23T00:17:02.661Z,98155.04
2022-09-23T00:18:11.010Z,98152.39
2022-09-23T00:19:20.716Z,98156.86
2022-09-23T00:20:30.056Z,98158.36
2022-09-23T00:21:38.844Z,98157.04
2022-09-23T00:22:47.168Z,98155.12
2022-09-23T00:23:55.194Z,98157.86
2022-09-23T00:25:03.682Z,98157.16
2022-09-23T00:26:12.136Z,98157.96
2022-09-23T00:27:23.591Z,98158.45
2022-09-23T00:28:35.673Z,98154.45
2022-09-23T00:29:44.465Z,98152.90
2022-09-23T00:30:54.225Z,98152.71
2022-09-23T00:32:02.525Z,98155.61
2022-09-23T00:33:11.612Z,98158.52
2022-09-23T00:34:20.422Z,98159.86
2022-09-23T00:35:31.195Z,98159.62
2022-09-23T00:36:40.369Z,98163.28
2022-09-23T00:37:50.677Z,98164.03
2022-09-23T00:39:04.163Z,98165.52
2022-09-23T00:40:15.253Z,98159.74
2022-09-23T00:41:24.419Z,98156.92
2022-09-23T00:42:35.048Z,98164.87
2022-09-23T00:44:29.825Z,98165.39
2022-09-23T00:45:39.146Z,98168.14
2022-09-23T00:46:47.655Z,98162.86
2022-09-23T00:48:04.944Z,98168.73
2022-09-23T00:49:27.726Z,98176.54
2022-09-23T00:50:48.003Z,98175.61
2022-09-23T00:52:01.297Z,98175.88
2022-09-23T00:53:11.938Z,98174.52
2022-09-23T00:54:20.188Z,98178.81
2022-09-23T00:55:35.665Z,98181.80
2022-09-23T00:56:47.775Z,98180.82
2022-09-23T00:57:58.565Z,98182.16
2022-09-23T00:59:10.419Z,98183.96
2022-09-23T01:00:18.495Z,98181.43
2022-09-23T01:01:27.677Z,98180.39
2022-09-23T01:02:37.055Z,98188.90
2022-09-23T01:03:47.126Z,98188.03
2022-09-23T01:04:55.235Z,98188.23
2022-09-23T01:06:07.184Z,98190.89
2022-09-23T01:07:15.264Z,98188.53
2022-09-23T01:08:26.091Z,98191.55
2022-09-23T01:09:34.622Z,98195.02
2022-09-23T01:11:07.434Z,98197.77
2022-09-23T01:12:21.475Z,98197.35
2022-09-23T01:14:08.557Z,98193.07
2022-09-23T01:15:18.275Z,98195.00
2022-09-23T01:16:41.755Z,98199.35
2022-09-23T01:18:03.557Z,98197.14
2022-09-23T01:19:39.504Z,98195.86
2022-09-23T01:21:01.061Z,98198.64
2022-09-23T01:22:30.957Z,98195.34
2022-09-23T01:24:07.955Z,98193.99
2022-09-23T01:25:55.767Z,98198.59
2022-09-23T01:27:33.007Z,98206.23
2022-09-23T01:29:05.579Z,98202.19
2022-09-23T01:30:49.932Z,98199.98
2022-09-23T01:32:21.529Z,98202.94
2022-09-23T01:33:37.048Z,98203.48
2022-09-23T01:34:50.284Z,98207.04
2022-09-23T01:36:11.922Z,98204.48
2022-09-23T01:37:45.765Z,98205.67
2022-09-23T01:39:00.197Z,98210.91
2022-09-23T01:40:23.398Z,98211.83
2022-09-23T01:42:02.749Z,98212.40
2022-09-23T01:43:11.694Z,98218.75
2022-09-23T01:44:31.773Z,98219.76
2022-09-23T01:45:49.124Z,98221.19
2022-09-23T01:47:12.243Z,98222.13
2022-09-23T01:48:39.127Z,98223.86
2022-09-23T01:50:03.488Z,98225.40
2022-09-23T01:51:36.128Z,98229.00
2022-09-23T01:52:49.039Z,98235.66
2022-09-23T01:54:22.829Z,98237.02
2022-09-23T01:55:39.959Z,98239.33
2022-09-23T01:56:54.004Z,98243.55
2022-09-23T01:58:19.916Z,98246.44
2022-09-23T01:59:54.394Z,98247.90
2022-09-23T02:01:05.575Z,98248.23
2022-09-23T02:02:45.889Z,98252.20
2022-09-23T02:04:24.129Z,98258.27
2022-09-23T02:05:40.682Z,98260.06
2022-09-23T02:06:55.078Z,98261.77
2022-09-23T02:08:19.206Z,98264.64
2022-09-23T02:09:30.250Z,98269.61
2022-09-23T02:11:06.157Z,98271.54
2022-09-23T02:12:19.165Z,98272.89
2022-09-23T02:13:58.646Z,98271.34
2022-09-23T02:15:18.059Z,98275.16
2022-09-23T02:16:53.741Z,98277.23
2022-09-23T02:18:11.779Z,98278.30
2022-09-23T02:19:52.686Z,98276.07
2022-09-23T02:21:06.752Z,98281.62
2022-09-23T02:22:45.139Z,98286.18
2022-09-23T02:23:57.525Z,98285.16
2022-09-23T02:25:06.083Z,98280.79
2022-09-23T02:26:40.719Z,98288.90
2022-09-23T02:27:59.765Z,98289.90
2022-09-23T02:29:55.018Z,98290.29
2022-09-23T02:31:48.251Z,98291.08
2022-09-23T02:33:20.672Z,98292.23
2022-09-23T02:35:05.255Z,98301.02
2022-09-23T02:36:34.023Z,98301.85
2022-09-23T02:37:54.901Z,98305.58
2022-09-23T02:39:06.726Z,98306.08
2022-09-23T02:41:01.811Z,98311.69
2022-09-23T02:42:12.724Z,98314.81
2022-09-23T02:43:31.779Z,98316.73
2022-09-23T02:44:43.192Z,98321.73
2022-09-23T02:45:51.926Z,98325.87
2022-09-23T02:47:00.724Z,98328.69
2022-09-23T02:48:23.331Z,98326.39
2022-09-23T02:49:34.179Z,98330.89
2022-09-23T02:50:45.835Z,98331.58
2022-09-23T02:51:56.646Z,98336.90
2022-09-23T02:53:06.157Z,98338.30
2022-09-23T02:54:17.253Z,98337.85
2022-09-23T02:55:26.251Z,98338.63
2022-09-23T02:56:37.664Z,98343.45
2022-09-23T02:57:49.877Z,98344.56
2022-09-23T02:58:57.738Z,98345.52
2022-09-23T03:00:09.886Z,98350.69
2022-09-23T03:01:49.228Z,98350.21
2022-09-23T03:03:20.739Z,98351.45
2022-09-23T03:05:00.422Z,98356.59
2022-09-23T03:06:31.877Z,98358.08
2022-09-23T03:07:52.007Z,98361.80
2022-09-23T03:09:12.467Z,98362.14
2022-09-23T03:10:46.082Z,98364.50
2022-09-23T03:12:00.228Z,98368.05
2022-09-23T03:13:25.051Z,98370.88
2022-09-23T03:15:00.565Z,98373.07
2022-09-23T03:16:18.129Z,98374.06
2022-09-23T03:18:11.141Z,98376.83
2022-09-23T03:19:24.692Z,98383.27
2022-09-23T03:20:36.837Z,98392.10
2022-09-23T03:22:07.915Z,98394.90
2022-09-23T03:23:16.975Z,98400.74
2022-09-23T03:24:25.933Z,98405.97
2022-09-23T03:25:35.336Z,98407.51
2022-09-23T03:26:45.051Z,98410.90
2022-09-23T03:27:58.631Z,98417.34
2022-09-23T03:29:12.818Z,98420.98
2022-09-23T03:30:23.474Z,98418.54
2022-09-23T03:31:35.499Z,98418.64
2022-09-23T03:32:50.546Z,98417.92
2022-09-23T03:33:59.568Z,98417.27
2022-09-23T03:35:08.225Z,98417.49
2022-09-23T03:36:35.763Z,98419.73
2022-09-23T03:37:47.539Z,98423.15
2022-09-23T03:39:03.694Z,98428.59
2022-09-23T03:40:30.856Z,98427.40
2022-09-23T03:41:52.529Z,98429.52
2022-09-23T03:43:06.020Z,98427.77
2022-09-23T03:44:14.855Z,98427.60
2022-09-23T03:45:35.752Z,98424.27
2022-09-23T03:46:51.597Z,98421.42
2022-09-23T03:48:02.838Z,98420.91
2022-09-23T03:49:29.660Z,98425.84
2022-09-23T03:50:41.186Z,98429.64
2022-09-23T03:51:50.522Z,98433.99
2022-09-23T03:53:02.868Z,98437.40
2022-09-23T03:54:11.532Z,98436.29
2022-09-23T03:55:21.368Z,98435.45
2022-09-23T03:56:30.036Z,98432.89
2022-09-23T03:57:39.101Z,98432.72
2022-09-23T03:58:48.823Z,98433.09
2022-09-23T04:00:00.881Z,98435.59
2022-09-23T04:01:22.961Z,98433.38
2022-09-23T04:02:32.320Z,98438.45
2022-09-23T04:03:43.166Z,98441.48
2022-09-23T04:04:53.396Z,98443.10
2022-09-23T04:06:03.481Z,98442.48
2022-09-23T04:07:12.407Z,98444.92
2022-09-23T04:08:20.448Z,98451.77
2022-09-23T04:09:30.736Z,98453.91
2022-09-23T04:10:42.814Z,98453.77
2022-09-23T04:11:52.769Z,98457.04
2022-09-23T04:13:00.555Z,98457.80
2022-09-23T04:14:09.914Z,98458.81
2022-09-23T04:15:17.676Z,98459.23
2022-09-23T04:16:26.787Z,98457.75
2022-09-23T04:17:35.037Z,98456.73
2022-09-23T04:18:44.686Z,98458.23
2022-09-23T04:19:55.943Z,98456.91
2022-09-23T04:21:05.611Z,98458.35
2022-09-23T04:22:13.789Z,98457.58
2022-09-23T04:23:22.963Z,98458.06
2022-09-23T04:24:34.564Z,98457.77
2022-09-23T04:25:52.760Z,98459.30
2022-09-23T04:27:03.880Z,98455.87
2022-09-23T04:28:12.482Z,98455.23
2022-09-23T04:29:20.232Z,98458.85
2022-09-23T04:30:28.719Z,98458.38
2022-09-23T04:31:38.618Z,98461.80
2022-09-23T04:32:49.775Z,98458.73
2022-09-23T04:33:58.081Z,98465.22
2022-09-23T04:35:07.252Z,98463.73
2022-09-23T04:36:15.065Z,98465.23
2022-09-23T04:37:23.592Z,98467.36
2022-09-23T04:38:37.927Z,98466.77
2022-09-23T04:39:46.292Z,98467.56
2022-09-23T04:40:55.234Z,98468.39
2022-09-23T04:42:03.575Z,98465.57
2022-09-23T04:43:13.541Z,98469.18
2022-09-23T04:44:29.951Z,98470.45
2022-09-23T04:45:38.695Z,98470.72
2022-09-23T04:46:51.013Z,98469.55
2022-09-23T04:48:00.416Z,98471.15
2022-09-23T04:49:09.330Z,98474.10
2022-09-23T04:50:18.244Z,98472.67
2022-09-23T04:51:28.215Z,98474.24
2022-09-23T04:52:37.197Z,98475.80
2022-09-23T04:53:48.466Z,98476.80
2022-09-23T04:54:59.713Z,98480.73
2022-09-23T04:56:15.755Z,98474.70
2022-09-23T04:57:25.981Z,98471.23
2022-09-23T04:58:36.125Z,98469.90
2022-09-23T04:59:47.345Z,98471.92
2022-09-23T05:01:02.992Z,98470.44
2022-09-23T05:02:14.961Z,98470.79
2022-09-23T05:03:25.764Z,98471.24
2022-09-23T05:04:35.539Z,98473.23
2022-09-23T05:05:48.533Z,98474.38
2022-09-23T05:07:02.244Z,98475.73
2022-09-23T05:08:16.219Z,98476.99
2022-09-23T05:09:26.398Z,98477.58
2022-09-23T05:10:36.808Z,98475.92
2022-09-23T05:11:46.878Z,98474.55
2022-09-23T05:12:59.286Z,98476.02
2022-09-23T05:14:07.180Z,98476.77
2022-09-23T05:15:18.022Z,98480.00
2022-09-23T05:16:27.017Z,98483.11
2022-09-23T05:17:35.551Z,98484.37
2022-09-23T05:18:45.788Z,98485.36
2022-09-23T05:19:55.873Z,98485.58
2022-09-23T05:21:05.980Z,98486.30
2022-09-23T05:22:13.692Z,98484.83
2022-09-23T05:23:24.202Z,98483.59
2022-09-23T05:24:34.786Z,98484.02
2022-09-23T05:25:44.324Z,98488.78
2022-09-23T05:26:53.904Z,98491.59
2022-09-23T05:28:02.932Z,98491.06
2022-09-23T05:29:10.903Z,98491.50
2022-09-23T05:30:18.636Z,98491.81
2022-09-23T05:31:29.529Z,98491.93
2022-09-23T05:32:39.216Z,98490.73
2022-09-23T05:33:53.655Z,98489.19
2022-09-23T05:35:01.150Z,98487.59
2022-09-23T05:36:10.229Z,98487.38
2022-09-23T05:37:18.612Z,98489.89
2022-09-23T05:38:27.981Z,98489.23
2022-09-23T05:39:36.332Z,98491.45
2022-09-23T05:40:45.612Z,98487.65
2022-09-23T05:41:57.564Z,98486.66
2022-09-23T05:43:06.869Z,98490.58
2022-09-23T05:44:15.288Z,98488.53
2022-09-23T05:45:25.480Z,98490.78
2022-09-23T05:46:36.171Z,98491.36
2022-09-23T05:47:45.653Z,98491.53
2022-09-23T05:48:56.781Z,98495.81
2022-09-23T05:50:10.251Z,98495.33
2022-09-23T05:51:30.654Z,98493.53
2022-09-23T05:52:43.297Z,98494.11
2022-09-23T05:53:54.642Z,98494.90
2022-09-23T05:55:03.373Z,98494.23
2022-09-23T05:56:11.965Z,98493.77
2022-09-23T05:57:21.991Z,98496.39
2022-09-23T05:58:30.420Z,98496.64
2022-09-23T05:59:39.871Z,98496.08
2022-09-23T06:00:51.590Z,98495.91
2022-09-23T06:02:00.309Z,98498.98
2022-09-23T06:03:22.089Z,98498.52
2022-09-23T06:04:32.790Z,98498.61
2022-09-23T06:05:42.188Z,98497.96
2022-09-23T06:06:53.258Z,98500.68
2022-09-23T06:08:03.006Z,98502.23
2022-09-23T06:09:14.699Z,98503.59
2022-09-23T06:10:26.362Z,98504.40
2022-09-23T06:11:36.071Z,98500.51
2022-09-23T06:12:46.796Z,98500.38
2022-09-23T06:14:04.952Z,98500.16
2022-09-23T06:15:13.620Z,98497.45
2022-09-23T06:16:23.674Z,98498.98
2022-09-23T06:17:33.945Z,98500.70
2022-09-23T06:18:43.902Z,98501.30
2022-09-23T06:19:52.972Z,98499.16
2022-09-23T06:21:03.763Z,98497.94
2022-09-23T06:22:13.811Z,98499.73
2022-09-23T06:23:25.590Z,98502.54
2022-09-23T06:24:36.430Z,98499.11
2022-09-23T06:25:48.597Z,98500.89
2022-09-23T06:26:57.250Z,98499.02
2022-09-23T06:28:06.026Z,98499.21
2022-09-23T06:29:14.024Z,98496.88
2022-09-23T06:30:21.593Z,98500.45
2022-09-23T06:31:30.869Z,98498.66
2022-09-23T06:32:39.559Z,98502.52
2022-09-23T06:33:48.979Z,98504.58
2022-09-23T06:34:57.965Z,98506.78
2022-09-23T06:36:09.211Z,98509.90
2022-09-23T06:37:20.262Z,98509.45
2022-09-23T06:38:29.924Z,98506.09
2022-09-23T06:39:40.549Z,98506.02
2022-09-23T06:40:55.886Z,98504.55
2022-09-23T06:42:09.024Z,98504.34
2022-09-23T06:43:17.726Z,98502.88
2022-09-23T06:44:25.693Z,98505.61
2022-09-23T06:45:34.792Z,98506.55
2022-09-23T06:46:44.246Z,98504.50
2022-09-23T06:48:00.068Z,98502.80
2022-09-23T06:49:08.658Z,98500.90
2022-09-23T06:50:17.089Z,98502.15
2022-09-23T06:51:29.426Z,98500.84
2022-09-23T06:52:38.035Z,98500.98
2022-09-23T06:53:47.525Z,98502.05
2022-09-23T06:54:56.280Z,98502.58
2022-09-23T06:56:09.191Z,98502.98
2022-09-23T06:57:17.517Z,98501.52
2022-09-23T06:58:28.450Z,98501.22
2022-09-23T06:59:38.619Z,98506.21
2022-09-23T07:00:49.638Z,98508.77
2022-09-23T07:01:59.372Z,98506.16
2022-09-23T07:03:11.471Z,98506.20
2022-09-23T07:04:19.219Z,98504.89
2022-09-23T07:05:27.741Z,98504.32
2022-09-23T07:06:37.553Z,98501.80
2022-09-23T07:07:49.719Z,98501.13
2022-09-23T07:08:58.589Z,98504.51
2022-09-23T07:10:08.394Z,98503.70
2022-09-23T07:11:17.639Z,98505.73
2022-09-23T07:12:27.416Z,98503.00
2022-09-23T07:13:39.026Z,98500.84
2022-09-23T07:14:49.253Z,98499.52
2022-09-23T07:16:00.432Z,98497.75
2022-09-23T07:17:08.933Z,98497.60
2022-09-23T07:18:20.525Z,98496.73
2022-09-23T07:19:29.446Z,98495.29
2022-09-23T07:20:40.903Z,98496.02
2022-09-23T07:21:51.452Z,98497.67
2022-09-23T07:22:59.991Z,98494.27
2022-09-23T07:24:10.732Z,98494.43
2022-09-23T07:25:19.827Z,98493.21
2022-09-23T07:26:29.049Z,98492.90
2022-09-23T07:27:38.087Z,98493.05
2022-09-23T07:28:47.537Z,98494.16
2022-09-23T07:29:58.061Z,98493.97
2022-09-23T07:31:08.539Z,98491.83
2022-09-23T07:32:20.153Z,98494.02
2022-09-23T07:33:32.777Z,98497.29
2022-09-23T07:34:48.859Z,98499.53
2022-09-23T07:36:00.158Z,98497.17
2022-09-23T07:37:08.650Z,98502.54
2022-09-23T07:38:18.128Z,98499.88
2022-09-23T07:39:28.948Z,98497.88
2022-09-23T07:40:37.721Z,98498.55
2022-09-23T07:41:49.837Z,98495.77
2022-09-23T07:42:58.052Z,98493.20
2022-09-23T07:44:07.655Z,98493.58
2022-09-23T07:45:16.601Z,98492.10
2022-09-23T07:46:25.515Z,98492.95
2022-09-23T07:47:34.261Z,98493.27
2022-09-23T07:48:43.147Z,98494.89
2022-09-23T07:49:55.865Z,98496.56
2022-09-23T07:51:25.298Z,98496.19
2022-09-23T07:52:34.670Z,98499.70
2022-09-23T07:53:44.045Z,98500.09
2022-09-23T07:54:53.754Z,98495.25
2022-09-23T07:56:07.682Z,98494.12
2022-09-23T07:57:15.905Z,98494.38
2022-09-23T07:58:27.514Z,98495.85
2022-09-23T07:59:37.922Z,98496.63
2022-09-23T08:00:46.632Z,98496.98
2022-09-23T08:01:56.046Z,98500.94
2022-09-23T08:03:04.335Z,98496.80
2022-09-23T08:04:25.549Z,98495.45
2022-09-23T08:05:34.274Z,98496.42
2022-09-23T08:06:56.073Z,98496.95
2022-09-23T08:08:09.102Z,98496.58
2022-09-23T08:09:20.673Z,98496.36
2022-09-23T08:10:32.301Z,98495.13
2022-09-23T08:11:44.118Z,98494.42
2022-09-23T08:12:54.659Z,98497.38
2022-09-23T08:14:06.085Z,98498.80
2022-09-23T08:15:15.670Z,98497.76
2022-09-23T08:16:23.762Z,98496.08
2022-09-23T08:17:35.237Z,98493.89
2022-09-23T08:18:48.860Z,98495.80
2022-09-23T08:20:02.465Z,98493.61
2022-09-23T08:21:11.716Z,98496.91
2022-09-23T08:22:21.730Z,98498.36
2022-09-23T08:23:35.695Z,98499.95
2022-09-23T08:24:45.933Z,98498.44
2022-09-23T08:26:01.777Z,98495.38
2022-09-23T08:27:09.913Z,98496.52
2022-09-23T08:28:21.349Z,98497.28
2022-09-23T08:29:30.980Z,98498.29
2022-09-23T08:30:42.117Z,98497.60
2022-09-23T08:31:53.369Z,98493.98
2022-09-23T08:33:04.191Z,98494.39
2022-09-23T08:34:15.512Z,98494.49
2022-09-23T08:35:24.061Z,98495.06
2022-09-23T08:36:35.809Z,98492.15
2022-09-23T08:37:47.405Z,98491.73
2022-09-23T08:38:58.678Z,98491.52
2022-09-23T08:40:10.527Z,98492.24
2022-09-23T08:41:41.935Z,98490.40
2022-09-23T08:42:52.047Z,98487.24
2022-09-23T08:44:49.652Z,98486.43
2022-09-23T08:46:05.011Z,98485.79
2022-09-23T08:47:51.144Z,98487.42
2022-09-23T08:49:00.654Z,98486.72
2022-09-23T08:50:20.750Z,98484.63
2022-09-23T08:51:33.953Z,98483.44
2022-09-23T08:53:00.892Z,98485.48
2022-09-23T08:54:12.992Z,98487.65
2022-09-23T08:55:22.154Z,98488.25
2022-09-23T08:56:30.884Z,98488.33
2022-09-23T08:57:57.417Z,98492.20
2022-09-23T08:59:34.707Z,98488.73
2022-09-23T09:00:44.394Z,98490.98
2022-09-23T09:02:18.492Z,98490.68
2022-09-23T09:03:33.510Z,98493.28
2022-09-23T09:04:44.752Z,98491.08
2022-09-23T09:05:54.630Z,98492.98
2022-09-23T09:08:40.603Z,98487.68
2022-09-23T09:10:16.591Z,98488.67
2022-09-23T09:11:26.584Z,98487.96
2022-09-23T09:12:49.322Z,98486.04
2022-09-23T09:14:31.495Z,98482.70
2022-09-23T09:16:36.374Z,98483.20
2022-09-23T09:18:13.206Z,98482.40
2022-09-23T09:19:34.156Z,98479.83
2022-09-23T09:20:49.121Z,98479.38
2022-09-23T09:21:58.235Z,98478.55
2022-09-23T09:23:25.910Z,98476.69
2022-09-23T09:24:38.390Z,98475.25
2022-09-23T09:25:51.815Z,98470.86
2022-09-23T09:27:00.204Z,98472.04
2022-09-23T09:28:37.686Z,98467.69
2022-09-23T09:29:49.924Z,98464.60
2022-09-23T09:31:29.619Z,98461.69
2022-09-23T09:32:48.758Z,98460.45
2022-09-23T09:34:07.348Z,98458.92
2022-09-23T09:35:39.854Z,98456.23
2022-09-23T09:37:08.463Z,98458.21
2022-09-23T09:38:16.896Z,98458.24
2022-09-23T09:39:26.400Z,98457.50
2022-09-23T09:40:37.082Z,98452.39
2022-09-23T09:41:52.294Z,98449.33
2022-09-23T09:43:02.033Z,98447.23
2022-09-23T09:44:23.318Z,98445.09
2022-09-23T09:46:00.893Z,98440.23
2022-09-23T09:47:33.861Z,98441.14
2022-09-23T09:48:55.807Z,98439.50
2022-09-23T09:50:19.142Z,98439.41
2022-09-23T09:51:30.808Z,98441.31
2022-09-23T09:52:42.434Z,98438.45
2022-09-23T09:53:54.379Z,98437.88
2022-09-23T09:55:19.399Z,98439.83
2022-09-23T09:56:34.987Z,98438.84
2022-09-23T09:58:07.306Z,98442.04
2022-09-23T09:59:22.521Z,98441.71
2022-09-23T10:00:38.515Z,98443.45
2022-09-23T10:01:50.828Z,98441.11
2022-09-23T10:03:00.726Z,98441.52
2022-09-23T10:04:23.585Z,98439.98
2022-09-23T10:05:52.717Z,98442.04
2022-09-23T10:07:14.104Z,98439.23
2022-09-23T10:08:31.662Z,98437.95
2022-09-23T10:09:41.656Z,98436.88
2022-09-23T10:11:03.716Z,98439.04
2022-09-23T10:12:19.945Z,98437.31
2022-09-23T10:13:29.429Z,98433.39
2022-09-23T10:14:38.188Z,98433.48
2022-09-23T10:15:48.132Z,98431.71
2022-09-23T10:17:23.472Z,98429.19
2022-09-23T10:18:55.220Z,98430.59
2022-09-23T10:20:17.414Z,98431.55
2022-09-23T10:21:30.750Z,98429.84
2022-09-23T10:22:41.269Z,98427.39
2022-09-23T10:23:55.422Z,98428.96
2022-09-23T10:25:26.035Z,98429.02
2022-09-23T10:26:48.754Z,98426.63
2022-09-23T10:27:57.753Z,98423.94
2022-09-23T10:29:22.013Z,98422.52
2022-09-23T10:30:30.752Z,98422.20
2022-09-23T10:31:40.249Z,98422.30
2022-09-23T10:32:49.658Z,98422.29
2022-09-23T10:34:02.537Z,98423.27
2022-09-23T10:35:11.031Z,98424.47
2022-09-23T10:36:20.762Z,98419.91
2022-09-23T10:37:48.929Z,98420.52
2022-09-23T10:39:29.202Z,98418.55
2022-09-23T10:40:59.687Z,98417.12
2022-09-23T10:43:10.515Z,98413.63
2022-09-23T10:44:58.033Z,98416.46
2022-09-23T10:46:54.344Z,98418.24
2022-09-23T10:48:20.698Z,98419.45
2022-09-23T10:49:43.200Z,98419.42
2022-09-23T10:50:52.764Z,98418.36
2022-09-23T10:52:33.793Z,98416.85
2022-09-23T10:53:56.985Z,98418.89
2022-09-23T10:55:14.150Z,98421.83
2022-09-23T10:56:45.393Z,98416.02
2022-09-23T10:58:25.227Z,98420.00
2022-09-23T11:00:16.680Z,98419.98
2022-09-23T11:01:40.262Z,98416.49
2022-09-23T11:03:15.266Z,98413.55
2022-09-23T11:05:01.393Z,98410.89
2022-09-23T11:06:34.683Z,98411.81
2022-09-23T11:08:19.587Z,98410.02
2022-09-23T11:09:43.233Z,98412.33
2022-09-23T11:11:16.264Z,98407.17
2022-09-23T11:12:40.822Z,98406.73
2022-09-23T11:14:18.754Z,98408.09
2022-09-23T11:16:04.100Z,98406.52
2022-09-23T11:17:16.889Z,98409.08
2022-09-23T11:18:40.936Z,98407.20
2022-09-23T11:19:52.783Z,98406.58
2022-09-23T11:21:30.225Z,98408.48
2022-09-23T11:22:45.754Z,98407.07
2022-09-23T11:24:03.527Z,98409.33
2022-09-23T11:25:25.669Z,98409.42
2022-09-23T11:27:10.274Z,98406.73
2022-09-23T11:28:41.737Z,98407.30
2022-09-23T11:30:11.110Z,98404.10
2022-09-23T11:31:59.675Z,98405.67
2022-09-23T11:33:30.285Z,98405.28
2022-09-23T11:34:48.897Z,98405.42
2022-09-23T11:36:12.600Z,98409.57
2022-09-23T11:37:30.313Z,98410.92
2022-09-23T11:38:45.177Z,98408.77
2022-09-23T11:40:10.448Z,98411.45
2022-09-23T11:41:33.532Z,98409.36
2022-09-23T11:42:49.601Z,98411.19
2022-09-23T11:44:21.994Z,98410.61
2022-09-23T11:45:34.941Z,98410.52
2022-09-23T11:47:12.922Z,98408.81
2022-09-23T11:49:01.497Z,98409.63
2022-09-23T11:50:31.025Z,98413.52
2022-09-23T11:52:03.267Z,98412.59
2022-09-23T11:53:39.179Z,98409.68
2022-09-23T11:55:20.260Z,98408.81
2022-09-23T11:57:03.409Z,98407.88
2022-09-23T11:58:38.167Z,98406.66
2022-09-23T11:59:54.008Z,98404.72
2022-09-23T12:01:08.795Z,98406.76
2022-09-23T12:02:44.751Z,98404.66
2022-09-23T12:04:25.798Z,98405.17
2022-09-23T12:05:44.288Z,98406.16
2022-09-23T12:07:07.093Z,98405.95
2022-09-23T12:08:33.957Z,98407.95
2022-09-23T12:10:03.756Z,98410.00
2022-09-23T12:11:38.403Z,98408.14
2022-09-23T12:13:29.311Z,98405.36
2022-09-23T12:15:18.772Z,98407.11
2022-09-23T12:17:10.245Z,98407.92
2022-09-23T12:18:27.676Z,98406.29
2022-09-23T12:19:54.095Z,98405.48
2022-09-23T12:21:46.298Z,98404.00
2022-09-23T12:23:17.165Z,98404.33
2022-09-23T12:24:43.947Z,98409.82
2022-09-23T12:25:59.367Z,98408.81
2022-09-23T12:27:12.398Z,98411.88
2022-09-23T12:28:21.110Z,98409.35
2022-09-23T12:29:33.584Z,98411.21
2022-09-23T12:30:41.858Z,98411.83
2022-09-23T12:31:52.156Z,98412.41
2022-09-23T12:33:11.647Z,98414.50
2022-09-23T12:34:36.552Z,98412.83
2022-09-23T12:35:46.971Z,98412.88
2022-09-23T12:36:56.455Z,98413.55
2022-09-23T12:38:04.754Z,98417.23
2022-09-23T12:39:25.215Z,98417.41
2022-09-23T12:40:38.679Z,98422.17
2022-09-23T12:41:50.307Z,98423.37
2022-09-23T12:43:02.350Z,98422.98
2022-09-23T12:44:17.403Z,98422.42
2022-09-23T12:45:37.151Z,98425.70
2022-09-23T12:46:46.615Z,98426.45
2022-09-23T12:47:57.645Z,98429.31
2022-09-23T12:49:06.443Z,98429.17
2022-09-23T12:51:04.464Z,98432.46
2022-09-23T12:52:15.653Z,98435.83
2022-09-23T12:53:43.215Z,98433.34
2022-09-23T12:54:53.052Z,98433.67
2022-09-23T12:56:24.779Z,98436.34
2022-09-23T12:57:39.439Z,98438.63
2022-09-23T12:58:50.842Z,98438.77
2022-09-23T13:00:01.391Z,98441.65
2022-09-23T13:01:26.640Z,98440.73
2022-09-23T13:03:12.422Z,98440.02
2022-09-23T13:05:16.120Z,98437.37
2022-09-23T13:06:42.989Z,98444.83
2022-09-23T13:07:53.725Z,98447.52
2022-09-23T13:09:01.991Z,98449.24
2022-09-23T13:11:01.833Z,98447.67
2022-09-23T13:12:16.149Z,98449.75
2022-09-23T13:13:44.763Z,98450.80
2022-09-23T13:14:55.638Z,98453.88
2022-09-23T13:16:22.808Z,98455.23
2022-09-23T13:17:40.159Z,98455.31
2022-09-23T13:19:29.778Z,98455.67
2022-09-23T13:20:40.189Z,98459.05
2022-09-23T13:21:48.647Z,98464.02
2022-09-23T13:22:57.689Z,98461.75
2022-09-23T13:24:24.213Z,98462.94
2022-09-23T13:25:35.100Z,98460.02
2022-09-23T13:26:55.494Z,98459.10
2022-09-23T13:28:07.003Z,98457.11
2022-09-23T13:29:35.143Z,98452.27
2022-09-23T13:30:52.896Z,98455.14
2022-09-23T13:32:04.661Z,98458.72
2022-09-23T13:33:20.845Z,98463.89
2022-09-23T13:34:34.825Z,98466.42
2022-09-23T13:35:54.127Z,98472.67
2022-09-23T13:37:44.710Z,98473.80
2022-09-23T13:38:54.196Z,98474.64
2022-09-23T13:40:33.625Z,98472.63
2022-09-23T13:41:46.426Z,98472.50
2022-09-23T13:43:20.006Z,98472.27
2022-09-23T13:44:27.801Z,98470.89
2022-09-23T13:45:39.836Z,98469.77
2022-09-23T13:46:56.487Z,98474.17
2022-09-23T13:48:09.924Z,98473.08
2022-09-23T13:49:30.366Z,98479.33
2022-09-23T13:50:44.098Z,98481.19
2022-09-23T13:51:53.112Z,98483.34
2022-09-23T13:53:03.258Z,98484.67
2022-09-23T13:54:30.734Z,98486.05
2022-09-23T13:55:40.870Z,98489.52
2022-09-23T13:56:51.845Z,98488.33
2022-09-23T13:58:16.217Z,98487.16
2022-09-23T13:59:40.896Z,98487.77
2022-09-23T14:00:53.043Z,98489.69
2022-09-23T14:02:14.680Z,98489.18
2022-09-23T14:03:38.851Z,98490.17
2022-09-23T14:04:50.917Z,98490.61
2022-09-23T14:06:04.997Z,98490.61
2022-09-23T14:07:16.518Z,98489.83
2022-09-23T14:08:24.328Z,98488.45
2022-09-23T14:09:37.439Z,98492.63
2022-09-23T14:10:47.689Z,98490.26
2022-09-23T14:11:59.177Z,98498.17
2022-09-23T14:13:07.092Z,98502.77
2022-09-23T14:14:16.459Z,98501.25
2022-09-23T14:15:24.281Z,98502.63
2022-09-23T14:16:38.848Z,98502.21
2022-09-23T14:18:04.918Z,98502.96
2022-09-23T14:19:25.859Z,98503.94
2022-09-23T14:20:34.054Z,98506.83
2022-09-23T14:21:42.821Z,98508.86
2022-09-23T14:23:05.561Z,98511.27
2022-09-23T14:24:23.622Z,98510.10
2022-09-23T14:25:32.929Z,98512.04
2022-09-23T14:26:41.858Z,98511.73
2022-09-23T14:27:51.184Z,98514.88
2022-09-23T14:29:00.870Z,98513.81
2022-09-23T14:30:16.972Z,98514.20
2022-09-23T14:31:26.086Z,98514.73
2022-09-23T14:32:37.239Z,98513.54
2022-09-23T14:33:48.826Z,98518.57
2022-09-23T14:35:04.843Z,98519.64
2022-09-23T14:36:37.401Z,98519.22
2022-09-23T14:38:07.057Z,98522.23
2022-09-23T14:39:15.607Z,98523.35
2022-09-23T14:40:41.194Z,98524.92
2022-09-23T14:41:51.404Z,98529.77
2022-09-23T14:43:30.889Z,98531.73
2022-09-23T14:44:40.184Z,98538.63
2022-09-23T14:46:00.278Z,98540.42
2022-09-23T14:47:12.121Z,98539.30
2022-09-23T14:48:33.460Z,98542.25
2022-09-23T14:50:10.530Z,98541.83
2022-09-23T14:51:18.492Z,98539.75
2022-09-23T14:52:28.306Z,98538.76
2022-09-23T14:53:44.092Z,98535.80
2022-09-23T14:54:55.224Z,98533.26
2022-09-23T14:56:21.942Z,98535.73
2022-09-23T14:57:33.399Z,98538.58
2022-09-23T14:58:51.015Z,98540.28
2022-09-23T15:00:21.956Z,98541.70
2022-09-23T15:01:37.417Z,98543.73
2022-09-23T15:02:47.271Z,98540.28
2022-09-23T15:03:56.729Z,98537.30
2022-09-23T15:05:21.756Z,98539.06
2022-09-23T15:06:29.595Z,98539.55
2022-09-23T15:07:40.326Z,98540.62